sensor_id;sensor_type;location;lat;lon;timestamp;pressure;altitude;pressure_sealevel;temperature;humidity
48606;BME280;8482;54.396;18.590;2023-01-24T16:03:30;103816.84;;;1.61;66.73
48606;BME280;8482;54.396;18.590;2023-01-24T16:05:56;103823.03;;;1.70;67.23
48606;BME280;8482;54.396;18.590;2023-01-24T16:08:22;103824.81;;;1.74;67.44
48606;BME280;8482;54.396;18.590;2023-01-24T16:10:51;103815.25;;;1.77;67.54
48606;BME280;8482;54.396;18.590;2023-01-24T16:13:33;103812.63;;;1.80;67.62
48606;BME280;8482;54.396;18.590;2023-01-24T16:16:04;103798.72;;;1.84;67.41
48606;BME280;8482;54.396;18.590;2023-01-24T16:18:32;103807.50;;;1.90;67.08
48606;BME280;8482;54.396;18.590;2023-01-24T16:20:58;103800.53;;;1.92;67.02
48606;BME280;8482;54.396;18.590;2023-01-24T16:23:24;103804.91;;;1.94;66.53
48606;BME280;8482;54.396;18.590;2023-01-24T16:25:53;103804.03;;;1.97;66.71
48606;BME280;8482;54.396;18.590;2023-01-24T16:28:26;103807.53;;;2.01;65.99
48606;BME280;8482;54.396;18.590;2023-01-24T16:30:59;103790.13;;;2.04;66.71
48606;BME280;8482;54.396;18.590;2023-01-24T16:33:25;103792.75;;;2.07;66.51
48606;BME280;8482;54.396;18.590;2023-01-24T16:35:51;103780.53;;;2.03;65.95
48606;BME280;8482;54.396;18.590;2023-01-24T16:38:17;103784.91;;;2.10;66.25
48606;BME280;8482;54.396;18.590;2023-01-24T16:40:43;103783.19;;;2.12;66.35
48606;BME280;8482;54.396;18.590;2023-01-24T16:43:21;103790.19;;;2.13;65.91
48606;BME280;8482;54.396;18.590;2023-01-24T16:45:49;103786.69;;;2.14;66.19
48606;BME280;8482;54.396;18.590;2023-01-24T16:48:17;103782.31;;;2.15;65.94
48606;BME280;8482;54.396;18.590;2023-01-24T16:50:44;103783.19;;;2.17;65.78
48606;BME280;8482;54.396;18.590;2023-01-24T16:53:12;103793.69;;;2.19;66.08
48606;BME280;8482;54.396;18.590;2023-01-24T16:55:38;103787.56;;;2.20;65.59
48606;BME280;8482;54.396;18.590;2023-01-24T16:58:10;103791.09;;;2.20;65.91
48606;BME280;8482;54.396;18.590;2023-01-24T17:00:37;103791.94;;;2.19;65.51
48606;BME280;8482;54.396;18.590;2023-01-24T17:03:04;103792.84;;;2.21;65.49
48606;BME280;8482;54.396;18.590;2023-01-24T17:05:31;103788.50;;;2.23;65.76
48606;BME280;8482;54.396;18.590;2023-01-24T17:07:57;103781.50;;;2.22;65.55
48606;BME280;8482;54.396;18.590;2023-01-24T17:10:24;103777.13;;;2.21;65.36
48606;BME280;8482;54.396;18.590;2023-01-24T17:12:51;103785.00;;;2.24;65.73
48606;BME280;8482;54.396;18.590;2023-01-24T17:15:17;103789.34;;;2.25;65.95
48606;BME280;8482;54.396;18.590;2023-01-24T17:17:43;103787.63;;;2.27;65.92
48606;BME280;8482;54.396;18.590;2023-01-24T17:20:10;103786.75;;;2.27;65.60
48606;BME280;8482;54.396;18.590;2023-01-24T17:22:38;103792.84;;;2.27;65.60
48606;BME280;8482;54.396;18.590;2023-01-24T17:25:05;103794.63;;;2.27;65.83
48606;BME280;8482;54.396;18.590;2023-01-24T17:27:31;103807.72;;;2.32;65.77
48606;BME280;8482;54.396;18.590;2023-01-24T17:29:57;103802.50;;;2.32;66.13
48606;BME280;8482;54.396;18.590;2023-01-24T17:32:23;103799.00;;;2.31;65.81
48606;BME280;8482;54.396;18.590;2023-01-24T17:34:49;103805.09;;;2.33;65.99
48606;BME280;8482;54.396;18.590;2023-01-24T17:37:15;103801.63;;;2.34;65.80
48606;BME280;8482;54.396;18.590;2023-01-24T17:39:40;103801.59;;;2.29;65.65
48606;BME280;8482;54.396;18.590;2023-01-24T17:42:06;103816.50;;;2.40;65.44
48606;BME280;8482;54.396;18.590;2023-01-24T17:44:32;103819.13;;;2.41;65.63
48606;BME280;8482;54.396;18.590;2023-01-24T17:46:58;103806.91;;;2.42;65.31
48606;BME280;8482;54.396;18.590;2023-01-24T17:49:24;103817.41;;;2.43;65.75
48606;BME280;8482;54.396;18.590;2023-01-24T17:51:50;103812.16;;;2.43;65.38
48606;BME280;8482;54.396;18.590;2023-01-24T17:54:16;103802.53;;;2.44;65.58
48606;BME280;8482;54.396;18.590;2023-01-24T17:56:43;103807.75;;;2.41;65.50
48606;BME280;8482;54.396;18.590;2023-01-24T17:59:09;103810.41;;;2.45;65.66
48606;BME280;8482;54.396;18.590;2023-01-24T18:01:36;103817.41;;;2.45;65.17
48606;BME280;8482;54.396;18.590;2023-01-24T18:04:02;103808.69;;;2.44;65.74
48606;BME280;8482;54.396;18.590;2023-01-24T18:06:32;103808.69;;;2.46;65.88
48606;BME280;8482;54.396;18.590;2023-01-24T18:08:58;103806.06;;;2.46;65.61
48606;BME280;8482;54.396;18.590;2023-01-24T18:11:24;103807.78;;;2.45;65.61
48606;BME280;8482;54.396;18.590;2023-01-24T18:13:50;103804.28;;;2.47;65.85
48606;BME280;8482;54.396;18.590;2023-01-24T18:16:19;103804.28;;;2.47;65.64
48606;BME280;8482;54.396;18.590;2023-01-24T18:18:46;103798.19;;;2.46;65.70
48606;BME280;8482;54.396;18.590;2023-01-24T18:21:19;103801.66;;;2.47;65.78
48606;BME280;8482;54.396;18.590;2023-01-24T18:24:00;103783.31;;;2.40;65.81
48606;BME280;8482;54.396;18.590;2023-01-24T18:26:29;103798.19;;;2.46;65.94
48606;BME280;8482;54.396;18.590;2023-01-24T18:28:57;103796.44;;;2.50;65.97
48606;BME280;8482;54.396;18.590;2023-01-24T18:31:23;103795.59;;;2.49;65.93
48606;BME280;8482;54.396;18.590;2023-01-24T18:33:56;103788.59;;;2.48;65.85
48606;BME280;8482;54.396;18.590;2023-01-24T18:36:26;103786.00;;;2.53;65.67
48606;BME280;8482;54.396;18.590;2023-01-24T18:38:53;103790.38;;;2.54;65.89
48606;BME280;8482;54.396;18.590;2023-01-24T18:41:19;103797.34;;;2.53;65.79
48606;BME280;8482;54.396;18.590;2023-01-24T18:43:45;103788.59;;;2.54;65.80
48606;BME280;8482;54.396;18.590;2023-01-24T18:46:13;103783.38;;;2.54;65.81
48606;BME280;8482;54.396;18.590;2023-01-24T18:48:42;103779.00;;;2.55;65.44
48606;BME280;8482;54.396;18.590;2023-01-24T18:51:15;103779.00;;;2.55;65.34
48606;BME280;8482;54.396;18.590;2023-01-24T18:53:43;103779.88;;;2.55;65.41
48606;BME280;8482;54.396;18.590;2023-01-24T18:56:10;103781.59;;;2.53;65.87
48606;BME280;8482;54.396;18.590;2023-01-24T18:58:38;103770.28;;;2.53;65.54
48606;BME280;8482;54.396;18.590;2023-01-24T19:01:20;103770.28;;;2.53;65.66
48606;BME280;8482;54.396;18.590;2023-01-24T19:03:47;103763.28;;;2.55;65.47
48606;BME280;8482;54.396;18.590;2023-01-24T19:06:13;103767.63;;;2.54;65.90
48606;BME280;8482;54.396;18.590;2023-01-24T19:08:40;103764.16;;;2.54;65.71
48606;BME280;8482;54.396;18.590;2023-01-24T19:11:15;103756.28;;;2.52;65.36
48606;BME280;8482;54.396;18.590;2023-01-24T19:13:41;103762.38;;;2.50;65.39
48606;BME280;8482;54.396;18.590;2023-01-24T19:16:08;103774.63;;;2.52;65.44
48606;BME280;8482;54.396;18.590;2023-01-24T19:18:34;103769.38;;;2.51;65.23
48606;BME280;8482;54.396;18.590;2023-01-24T19:21:06;103765.00;;;2.48;65.61
48606;BME280;8482;54.396;18.590;2023-01-24T19:23:38;103756.25;;;2.48;65.42
48606;BME280;8482;54.396;18.590;2023-01-24T19:26:05;103757.13;;;2.47;65.19
48606;BME280;8482;54.396;18.590;2023-01-24T19:28:32;103756.28;;;2.44;65.32
48606;BME280;8482;54.396;18.590;2023-01-24T19:30:59;103769.38;;;2.44;65.33
48606;BME280;8482;54.396;18.590;2023-01-24T19:33:29;103758.88;;;2.43;65.77
48606;BME280;8482;54.396;18.590;2023-01-24T19:35:56;103758.84;;;2.40;65.61
48606;BME280;8482;54.396;18.590;2023-01-24T19:38:22;103761.50;;;2.41;65.72
48606;BME280;8482;54.396;18.590;2023-01-24T19:40:49;103763.22;;;2.36;65.18
48606;BME280;8482;54.396;18.590;2023-01-24T19:43:15;103772.81;;;2.36;65.03
48606;BME280;8482;54.396;18.590;2023-01-24T19:45:43;103775.44;;;2.33;64.92
48606;BME280;8482;54.396;18.590;2023-01-24T19:48:10;103779.78;;;2.29;65.69
48606;BME280;8482;54.396;18.590;2023-01-24T19:50:38;103774.50;;;2.27;65.79
48606;BME280;8482;54.396;18.590;2023-01-24T19:53:07;103772.75;;;2.26;65.27
48606;BME280;8482;54.396;18.590;2023-01-24T19:55:33;103781.50;;;2.28;65.31
48606;BME280;8482;54.396;18.590;2023-01-24T19:58:05;103776.25;;;2.22;65.81
48606;BME280;8482;54.396;18.590;2023-01-24T20:00:33;103782.38;;;2.26;65.80
48606;BME280;8482;54.396;18.590;2023-01-24T20:02:59;103776.25;;;2.25;65.89
48606;BME280;8482;54.396;18.590;2023-01-24T20:05:26;103777.16;;;2.24;65.62
48606;BME280;8482;54.396;18.590;2023-01-24T20:07:57;103778.00;;;2.25;65.67
48606;BME280;8482;54.396;18.590;2023-01-24T20:10:25;103767.53;;;2.23;65.35
48606;BME280;8482;54.396;18.590;2023-01-24T20:12:52;103762.28;;;2.23;65.76
48606;BME280;8482;54.396;18.590;2023-01-24T20:15:18;103769.22;;;2.20;65.51
48606;BME280;8482;54.396;18.590;2023-01-24T20:17:45;103771.88;;;2.17;65.96
48606;BME280;8482;54.396;18.590;2023-01-24T20:20:11;103773.63;;;2.19;65.09
48606;BME280;8482;54.396;18.590;2023-01-24T20:22:37;103778.00;;;2.20;65.74
48606;BME280;8482;54.396;18.590;2023-01-24T20:25:03;103783.22;;;2.20;65.43
48606;BME280;8482;54.396;18.590;2023-01-24T20:27:29;103787.56;;;2.20;65.47
48606;BME280;8482;54.396;18.590;2023-01-24T20:29:55;103791.06;;;2.19;65.42
48606;BME280;8482;54.396;18.590;2023-01-24T20:32:21;103794.56;;;2.18;65.46
48606;BME280;8482;54.396;18.590;2023-01-24T20:34:50;103799.78;;;2.16;66.16
48606;BME280;8482;54.396;18.590;2023-01-24T20:37:15;103809.41;;;2.16;65.84
48606;BME280;8482;54.396;18.590;2023-01-24T20:39:41;103788.41;;;2.14;65.89
48606;BME280;8482;54.396;18.590;2023-01-24T20:42:09;103776.22;;;2.14;65.66
48606;BME280;8482;54.396;18.590;2023-01-24T20:44:35;103758.75;;;2.13;65.98
48606;BME280;8482;54.396;18.590;2023-01-24T20:47:02;103750.88;;;2.12;65.80
48606;BME280;8482;54.396;18.590;2023-01-24T20:49:28;103743.88;;;2.09;65.89
48606;BME280;8482;54.396;18.590;2023-01-24T20:51:55;103753.50;;;2.15;65.74
48606;BME280;8482;54.396;18.590;2023-01-24T20:54:21;103730.81;;;2.16;65.90
48606;BME280;8482;54.396;18.590;2023-01-24T20:56:47;103710.72;;;2.11;65.71
48606;BME280;8482;54.396;18.590;2023-01-24T20:59:15;103714.22;;;2.13;65.63
48606;BME280;8482;54.396;18.590;2023-01-24T21:01:41;103709.84;;;2.12;66.20
48606;BME280;8482;54.396;18.590;2023-01-24T21:04:07;103708.06;;;2.05;66.14
48606;BME280;8482;54.396;18.590;2023-01-24T21:06:36;103738.66;;;2.11;65.91
48606;BME280;8482;54.396;18.590;2023-01-24T21:09:03;103727.28;;;2.06;66.34
48606;BME280;8482;54.396;18.590;2023-01-24T21:11:31;103729.03;;;2.02;66.43
48606;BME280;8482;54.396;18.590;2023-01-24T21:14:01;103736.00;;;2.06;66.59
48606;BME280;8482;54.396;18.590;2023-01-24T21:16:31;103745.63;;;2.06;66.20
48606;BME280;8482;54.396;18.590;2023-01-24T21:19:00;103751.72;;;2.05;66.24
48606;BME280;8482;54.396;18.590;2023-01-24T21:21:28;103750.81;;;2.01;66.80
48606;BME280;8482;54.396;18.590;2023-01-24T21:24:04;103745.59;;;2.03;66.02
48606;BME280;8482;54.396;18.590;2023-01-24T21:26:33;103738.59;;;2.00;66.51
48606;BME280;8482;54.396;18.590;2023-01-24T21:28:59;103722.91;;;2.03;66.73
48606;BME280;8482;54.396;18.590;2023-01-24T21:31:25;103712.44;;;2.03;66.41
48606;BME280;8482;54.396;18.590;2023-01-24T21:33:51;103722.91;;;2.03;66.62
48606;BME280;8482;54.396;18.590;2023-01-24T21:36:23;103729.88;;;2.03;66.81
48606;BME280;8482;54.396;18.590;2023-01-24T21:38:50;103718.50;;;2.01;66.59
48606;BME280;8482;54.396;18.590;2023-01-24T21:41:20;103720.28;;;2.03;66.54
48606;BME280;8482;54.396;18.590;2023-01-24T21:44:07;103711.56;;;2.04;67.11
48606;BME280;8482;54.396;18.590;2023-01-24T21:46:34;103708.06;;;2.02;66.71
48606;BME280;8482;54.396;18.590;2023-01-24T21:49:00;103704.59;;;2.03;66.93
48606;BME280;8482;54.396;18.590;2023-01-24T21:51:40;103717.66;;;2.02;67.12
48606;BME280;8482;54.396;18.590;2023-01-24T21:54:21;103711.56;;;2.04;67.05
48606;BME280;8482;54.396;18.590;2023-01-24T21:59:38;103708.94;;;2.06;67.22
48606;BME280;8482;54.396;18.590;2023-01-24T22:02:21;103701.97;;;2.05;67.20
48606;BME280;8482;54.396;18.590;2023-01-24T22:04:48;103704.59;;;2.08;67.09
48606;BME280;8482;54.396;18.590;2023-01-24T22:07:18;103703.72;;;2.07;66.72
48606;BME280;8482;54.396;18.590;2023-01-24T22:09:45;103694.97;;;2.05;67.04
